Time;durP1;ratioP1;P1;durP2;ratioP2;P2;SDS_P1;SDS_P2;PMS_P1;PMS_P2;Temp;Humidity;BMP_temperature;BMP_pressure;BME280_temperature;BME280_humidity;BME280_pressure;Samples;Min_cycle;Max_cycle;Signal;HPM_P1;HPM_P2
2021/01/26 00:00:23;;;;;;;;;;;;;;;8.96;56.55;99986.66;5020191;28;19913;-78
2021/01/26 00:03:08;;;;;;;;;;;;;;;8.95;56.21;99984.25;5009998;28;19913;-79
2021/01/26 00:05:52;;;;;;;;;;;;;;;8.98;56.02;99981.72;5008627;28;19913;-79
2021/01/26 00:08:37;;;;;;;;;;;;;;;8.66;49.42;99981.41;5009137;28;19912;-78
2021/01/26 00:11:22;;;;;;;;;;;;;;;8.69;52.33;99986.19;5003960;28;19917;-78
2021/01/26 00:14:07;;;;;;;;;;;;;;;8.67;51.01;99983.81;5021108;28;20318;-79
2021/01/26 00:16:51;;;;;;;;;;;;;;;8.70;51.87;99977.75;5004494;28;19913;-79
2021/01/26 00:19:35;;;;;;;;;;;;;;;8.63;51.19;99979.38;5020229;28;19939;-77
2021/01/26 00:22:19;;;;;;;;;;;;;;;8.79;53.14;99986.66;5022787;28;19913;-77
2021/01/26 00:25:05;;;;;;;;;;;;;;;8.84;54.77;99993.81;5008591;28;19913;-78
2021/01/26 00:27:50;;;;;;;;;;;;;;;8.78;54.58;99995.94;5013699;28;20375;-79
2021/01/26 00:30:36;;;;;;;;;;;;;;;8.70;52.67;99993.22;5011694;28;19914;-78
2021/01/26 00:33:22;;;;;;;;;;;;;;;8.91;56.47;99996.84;5022670;28;19913;-77
2021/01/26 00:36:07;;;;;;;;;;;;;;;8.97;55.94;99998.28;4997755;28;19921;-78
2021/01/26 00:38:53;;;;;;;;;;;;;;;8.98;56.01;100008.03;5012821;28;19918;-76
2021/01/26 00:41:38;;;;;;;;;;;;;;;8.96;55.73;100007.53;5009684;28;19913;-76
2021/01/26 00:44:23;;;;;;;;;;;;;;;8.99;57.16;100012.31;5008187;28;19913;-77
2021/01/26 00:47:07;;;;;;;;;;;;;;;8.99;54.67;100015.81;5015905;28;20157;-78
2021/01/26 00:49:52;;;;;;;;;;;;;;;8.95;53.67;100019.50;5008101;28;19913;-78
2021/01/26 00:52:36;;;;;;;;;;;;;;;9.16;58.85;100036.69;5022510;28;19913;-76
2021/01/26 00:55:28;;;;;;;;;;;;;;;9.31;60.22;100030.75;5013581;28;19913;-77
2021/01/26 00:58:13;;;;;;;;;;;;;;;9.40;57.21;100039.66;5011482;28;19917;-77
2021/01/26 01:00:58;;;;;;;;;;;;;;;9.44;57.93;100051.50;5011665;28;19913;-77
2021/01/26 01:03:47;;;;;;;;;;;;;;;9.30;54.70;100048.16;5015041;28;19914;-77
2021/01/26 01:06:33;;;;;;;;;;;;;;;9.38;58.94;100049.25;5026007;28;19914;-76
2021/01/26 01:09:17;;;;;;;;;;;;;;;9.31;58.07;100057.09;4995118;28;19917;-76
2021/01/26 01:12:02;;;;;;;;;;;;;;;9.32;55.86;100062.19;5012062;28;19917;-76
2021/01/26 01:14:48;;;;;;;;;;;;;;;9.19;54.75;100070.53;5008270;28;20302;-78
2021/01/26 01:17:32;;;;;;;;;;;;;;;9.13;45.07;100071.81;5002226;28;20399;-77
2021/01/26 01:20:18;;;;;;;;;;;;;;;8.92;47.07;100071.66;5003202;28;20387;-76
2021/01/26 01:23:03;;;;;;;;;;;;;;;8.72;45.94;100080.44;5011957;28;20375;-77
2021/01/26 01:25:47;;;;;;;;;;;;;;;8.65;40.31;100080.09;4998405;28;19921;-76
2021/01/26 01:28:32;;;;;;;;;;;;;;;8.56;42.23;100091.75;4996255;28;19921;-79
2021/01/26 01:31:16;;;;;;;;;;;;;;;8.63;48.62;100090.47;5013284;28;19910;-78
2021/01/26 01:34:02;;;;;;;;;;;;;;;8.53;47.85;100097.78;5024662;28;19917;-79
2021/01/26 01:36:47;;;;;;;;;;;;;;;8.70;51.94;100102.44;5026679;28;19913;-80
2021/01/26 01:39:31;;;;;;;;;;;;;;;8.84;55.25;100107.69;5017572;28;19917;-80
2021/01/26 01:42:16;;;;;;;;;;;;;;;8.98;58.21;100101.03;5003480;28;19913;-80
2021/01/26 01:45:00;;;;;;;;;;;;;;;8.96;55.92;100102.44;5014737;28;20338;-80
2021/01/26 01:47:51;;;;;;;;;;;;;;;8.96;51.32;100103.25;5009814;28;19913;-79
2021/01/26 01:50:38;;;;;;;;;;;;;;;9.04;57.09;100117.13;5012214;28;19913;-77
2021/01/26 01:53:25;;;;;;;;;;;;;;;9.12;57.27;100114.41;4998782;28;19913;-79
2021/01/26 01:56:36;;;;;;;;;;;;;;;9.06;54.98;100121.09;5025679;28;19913;-79
2021/01/26 01:59:24;;;;;;;;;;;;;;;9.24;57.92;100121.91;4987843;28;19917;-79
2021/01/26 02:02:09;;;;;;;;;;;;;;;9.25;58.35;100123.47;5006223;28;19913;-80
2021/01/26 02:04:56;;;;;;;;;;;;;;;9.30;59.72;100126.81;4993170;28;19914;-79
2021/01/26 02:07:42;;;;;;;;;;;;;;;9.37;59.88;100129.88;4993351;28;19921;-79
2021/01/26 02:10:26;;;;;;;;;;;;;;;9.27;57.06;100137.53;5002426;28;19913;-79
2021/01/26 02:13:11;;;;;;;;;;;;;;;9.27;59.44;100138.34;5006204;28;19913;-77
2021/01/26 02:15:58;;;;;;;;;;;;;;;9.21;58.32;100139.59;4990906;28;19913;-81
2021/01/26 02:18:43;;;;;;;;;;;;;;;9.23;59.75;100144.72;5017975;28;19921;-78
2021/01/26 02:21:27;;;;;;;;;;;;;;;9.20;60.41;100148.84;5007214;28;19917;-78
2021/01/26 02:24:18;;;;;;;;;;;;;;;9.30;60.57;100156.66;4992004;28;19913;-79
2021/01/26 02:27:21;;;;;;;;;;;;;;;9.31;60.63;100158.28;5018898;28;19917;-79
2021/01/26 02:30:23;;;;;;;;;;;;;;;9.31;56.40;100166.41;5019194;28;19913;-79
2021/01/26 02:33:10;;;;;;;;;;;;;;;9.08;46.48;100166.91;5002920;28;19917;-80
2021/01/26 02:35:58;;;;;;;;;;;;;;;8.78;44.57;100163.19;4992775;28;19913;-79
2021/01/26 02:39:01;;;;;;;;;;;;;;;8.74;48.04;100168.44;5003968;28;19917;-78
2021/01/26 02:41:48;;;;;;;;;;;;;;;8.70;48.61;100169.38;5002650;28;19914;-79
2021/01/26 02:44:53;;;;;;;;;;;;;;;8.65;42.72;100166.81;4990223;28;20309;-77
2021/01/26 02:47:37;;;;;;;;;;;;;;;8.41;38.06;100181.59;4982378;28;19913;-78
2021/01/26 02:50:42;;;;;;;;;;;;;;;8.10;39.00;100191.63;4982344;28;19914;-80
2021/01/26 02:53:46;;;;;;;;;;;;;;;7.81;39.89;100188.59;4993018;28;19914;-80
2021/01/26 02:56:36;;;;;;;;;;;;;;;7.84;39.89;100194.19;4985100;28;19928;-79
2021/01/26 02:59:39;;;;;;;;;;;;;;;8.08;43.25;100196.53;4993408;28;19917;-80
2021/01/26 03:02:37;;;;;;;;;;;;;;;8.32;49.23;100204.34;4986334;28;19925;-79
2021/01/26 03:05:25;;;;;;;;;;;;;;;8.14;44.71;100203.41;5003709;28;19917;-78
2021/01/26 03:08:13;;;;;;;;;;;;;;;7.86;41.36;100212.84;5002557;28;19913;-78
2021/01/26 03:11:01;;;;;;;;;;;;;;;7.83;42.95;100210.72;5005792;28;19917;-77
2021/01/26 03:13:53;;;;;;;;;;;;;;;8.04;45.64;100211.81;5001812;28;19913;-78
2021/01/26 03:16:38;;;;;;;;;;;;;;;8.25;49.75;100204.75;5014466;28;19917;-77
2021/01/26 03:19:25;;;;;;;;;;;;;;;8.23;39.43;100215.09;4994248;28;19918;-78
2021/01/26 03:22:13;;;;;;;;;;;;;;;8.18;37.62;100215.22;4981258;28;19913;-77
2021/01/26 03:25:01;;;;;;;;;;;;;;;7.82;34.06;100225.41;5013728;28;19917;-77
2021/01/26 03:27:47;;;;;;;;;;;;;;;7.44;33.92;100214.13;4989611;28;19914;-77
2021/01/26 03:30:35;;;;;;;;;;;;;;;7.69;34.20;100222.44;4999263;28;19913;-77
2021/01/26 03:33:21;;;;;;;;;;;;;;;7.30;33.56;100230.41;5012719;28;19913;-77
2021/01/26 03:36:06;;;;;;;;;;;;;;;7.49;36.11;100230.22;5002804;28;19914;-77
2021/01/26 03:38:51;;;;;;;;;;;;;;;7.72;39.15;100229.13;5012482;28;19922;-78
2021/01/26 03:41:36;;;;;;;;;;;;;;;8.00;50.71;100236.00;5013438;28;20330;-78
2021/01/26 03:44:21;;;;;;;;;;;;;;;8.16;54.94;100245.34;4989662;28;20300;-78
2021/01/26 03:47:05;;;;;;;;;;;;;;;8.34;57.50;100248.97;4988003;28;19913;-77
2021/01/26 03:49:56;;;;;;;;;;;;;;;8.42;57.93;100244.72;5001082;28;19913;-77
2021/01/26 03:52:50;;;;;;;;;;;;;;;8.40;57.87;100260.47;5002733;28;19913;-77
2021/01/26 03:55:43;;;;;;;;;;;;;;;8.27;53.09;100264.03;4999886;28;19913;-76
2021/01/26 03:58:36;;;;;;;;;;;;;;;8.12;51.01;100266.03;4984442;28;19925;-76
2021/01/26 04:01:27;;;;;;;;;;;;;;;8.02;45.47;100266.28;5002391;28;19913;-76
2021/01/26 04:04:30;;;;;;;;;;;;;;;7.74;39.19;100275.63;5013110;28;19913;-77
2021/01/26 04:07:19;;;;;;;;;;;;;;;7.33;36.51;100275.75;5013049;28;19922;-76
2021/01/26 04:10:07;;;;;;;;;;;;;;;7.26;35.44;100269.97;5031223;22;19922;-81
2021/01/26 04:13:00;;;;;;;;;;;;;;;6.95;35.51;100275.22;4999833;28;20279;-81
2021/01/26 04:15:51;;;;;;;;;;;;;;;7.24;35.02;100283.00;5001375;28;19918;-81
2021/01/26 04:18:41;;;;;;;;;;;;;;;7.37;34.25;100292.97;5003273;28;19921;-81
2021/01/26 04:21:27;;;;;;;;;;;;;;;6.78;33.96;100283.94;4996114;28;19918;-81
2021/01/26 04:24:11;;;;;;;;;;;;;;;6.26;36.18;100295.97;4981461;28;19913;-81
2021/01/26 04:26:56;;;;;;;;;;;;;;;6.26;36.66;100301.38;4998488;28;19918;-81
2021/01/26 04:29:41;;;;;;;;;;;;;;;6.04;37.54;100308.53;4983817;28;19914;-81
2021/01/26 04:32:25;;;;;;;;;;;;;;;5.86;38.10;100310.09;4996390;28;19918;-81
2021/01/26 04:35:10;;;;;;;;;;;;;;;5.73;37.88;100317.06;4986655;28;19914;-81
2021/01/26 04:37:55;;;;;;;;;;;;;;;5.66;37.86;100313.91;4984461;28;20351;-81
2021/01/26 04:40:40;;;;;;;;;;;;;;;5.59;37.79;100321.56;4984604;28;19914;-81
2021/01/26 04:43:45;;;;;;;;;;;;;;;5.56;37.57;100319.47;4991787;28;19918;-81
2021/01/26 04:46:32;;;;;;;;;;;;;;;5.56;37.36;100322.16;4995634;28;19913;-81
2021/01/26 04:49:24;;;;;;;;;;;;;;;5.63;37.10;100321.81;4974499;28;19914;-81
2021/01/26 04:52:26;;;;;;;;;;;;;;;5.66;36.85;100329.31;4970401;28;19913;-81
2021/01/26 04:55:25;;;;;;;;;;;;;;;5.63;36.82;100330.69;4982312;28;19914;-81
2021/01/26 04:58:16;;;;;;;;;;;;;;;5.63;36.25;100333.41;4971504;28;19917;-81
2021/01/26 05:01:19;;;;;;;;;;;;;;;5.68;36.80;100327.94;4968420;28;19914;-81
2021/01/26 05:04:07;;;;;;;;;;;;;;;5.75;37.15;100333.75;4972538;28;19913;-80
2021/01/26 05:06:58;;;;;;;;;;;;;;;5.95;35.68;100340.75;4998225;28;19914;-80
2021/01/26 05:09:53;;;;;;;;;;;;;;;6.06;35.41;100336.81;4986870;28;19914;-81
2021/01/26 05:12:47;;;;;;;;;;;;;;;6.20;36.52;100344.94;4987148;28;20368;-81
2021/01/26 05:15:37;;;;;;;;;;;;;;;6.43;37.55;100349.44;4986685;28;19913;-82
2021/01/26 05:18:21;;;;;;;;;;;;;;;6.83;46.50;100353.28;4990898;28;20331;-82
2021/01/26 05:21:08;;;;;;;;;;;;;;;7.11;51.83;100360.31;4973267;28;20016;-81
2021/01/26 05:23:56;;;;;;;;;;;;;;;7.20;52.88;100369.34;4981179;28;20284;-82
2021/01/26 05:26:41;;;;;;;;;;;;;;;7.30;52.23;100368.31;4967997;28;19913;-82
2021/01/26 05:29:26;;;;;;;;;;;;;;;7.36;53.75;100369.03;4986505;28;20299;-82
2021/01/26 05:32:11;;;;;;;;;;;;;;;7.55;57.72;100378.63;5001504;28;19914;-81
2021/01/26 05:34:56;;;;;;;;;;;;;;;7.48;53.73;100380.94;4991389;28;19918;-81
2021/01/26 05:37:40;;;;;;;;;;;;;;;7.31;44.92;100384.22;4984908;28;19914;-80
2021/01/26 05:40:30;;;;;;;;;;;;;;;7.06;38.43;100383.97;4980727;28;20356;-81
2021/01/26 05:43:16;;;;;;;;;;;;;;;6.76;36.43;100385.31;4971855;28;19914;-81
2021/01/26 05:46:05;;;;;;;;;;;;;;;6.45;37.44;100391.22;4970668;28;19913;-81
2021/01/26 05:48:50;;;;;;;;;;;;;;;6.13;36.51;100404.72;5015930;28;19913;-81
2021/01/26 05:51:36;;;;;;;;;;;;;;;5.98;35.87;100405.75;5005664;28;19913;-80
2021/01/26 05:54:21;;;;;;;;;;;;;;;5.96;35.68;100413.34;4985842;28;19913;-80
2021/01/26 05:57:05;;;;;;;;;;;;;;;5.83;35.20;100421.31;4999981;28;19914;-80
2021/01/26 05:59:50;;;;;;;;;;;;;;;5.69;36.77;100423.91;4970233;28;19918;-81
2021/01/26 06:02:34;;;;;;;;;;;;;;;5.63;36.71;100427.00;4993321;28;19914;-81
2021/01/26 06:05:21;;;;;;;;;;;;;;;5.70;37.24;100428.22;4999223;28;19917;-81
2021/01/26 06:08:13;;;;;;;;;;;;;;;5.79;37.64;100423.78;4994835;28;19914;-80
2021/01/26 06:10:58;;;;;;;;;;;;;;;6.56;47.11;100440.50;4988278;28;19914;-81
2021/01/26 06:13:42;;;;;;;;;;;;;;;6.94;54.65;100453.91;4988058;28;20399;-81
2021/01/26 06:16:27;;;;;;;;;;;;;;;7.13;57.45;100451.94;4991447;28;19917;-82
2021/01/26 06:19:14;;;;;;;;;;;;;;;7.18;56.92;100458.06;4977898;28;19917;-81
2021/01/26 06:21:59;;;;;;;;;;;;;;;7.40;58.13;100465.50;5002911;28;19914;-82
2021/01/26 06:24:44;;;;;;;;;;;;;;;7.48;58.47;100472.91;4995302;28;19913;-82
2021/01/26 06:27:29;;;;;;;;;;;;;;;7.62;58.71;100479.09;4975931;28;19914;-82
2021/01/26 06:30:25;;;;;;;;;;;;;;;7.69;60.10;100487.63;4999220;28;19921;-82
2021/01/26 06:33:29;;;;;;;;;;;;;;;6.82;45.73;100482.22;4993004;28;19914;-81
2021/01/26 06:36:24;;;;;;;;;;;;;;;6.67;44.34;100490.56;4990217;28;19913;-83
2021/01/26 06:39:12;;;;;;;;;;;;;;;6.42;42.03;100493.66;4993061;28;19922;-83
2021/01/26 06:41:56;;;;;;;;;;;;;;;6.02;40.31;100497.72;4978910;28;19922;-83
2021/01/26 06:44:44;;;;;;;;;;;;;;;5.93;39.69;100505.69;4984078;28;19914;-83
2021/01/26 06:47:31;;;;;;;;;;;;;;;5.96;39.71;100507.78;4991647;28;19914;-82
2021/01/26 06:50:32;;;;;;;;;;;;;;;5.79;39.40;100512.81;4989315;28;19928;-81
2021/01/26 06:53:25;;;;;;;;;;;;;;;5.77;39.17;100511.50;4983945;28;19917;-82
2021/01/26 06:56:10;;;;;;;;;;;;;;;5.93;40.01;100504.88;4987705;28;19932;-81
2021/01/26 06:59:03;;;;;;;;;;;;;;;6.11;40.35;100508.66;4983172;28;19917;-82
2021/01/26 07:02:06;;;;;;;;;;;;;;;6.19;40.37;100519.66;4970346;28;19913;-82
2021/01/26 07:04:54;;;;;;;;;;;;;;;6.08;39.50;100523.56;4983762;28;19914;-83
2021/01/26 07:07:57;;;;;;;;;;;;;;;5.96;38.92;100529.38;4986192;28;19913;-83
2021/01/26 07:10:48;;;;;;;;;;;;;;;5.72;39.23;100520.47;4999275;28;20284;-83
2021/01/26 07:13:51;;;;;;;;;;;;;;;5.77;39.42;100520.41;4972650;28;19914;-83
2021/01/26 07:16:36;;;;;;;;;;;;;;;5.82;40.91;100520.34;4977131;28;19932;-82
2021/01/26 07:19:27;;;;;;;;;;;;;;;5.60;39.58;100528.16;4973879;28;19917;-82
2021/01/26 07:22:18;;;;;;;;;;;;;;;5.51;38.90;100522.59;4985411;28;19913;-82
2021/01/26 07:25:18;;;;;;;;;;;;;;;5.46;38.13;100513.75;4976015;28;19914;-82
2021/01/26 07:28:03;;;;;;;;;;;;;;;5.88;41.09;100521.94;4984705;28;19914;-82
2021/01/26 07:30:56;;;;;;;;;;;;;;;5.97;39.91;100511.28;4999394;28;19917;-81
2021/01/26 07:33:48;;;;;;;;;;;;;;;6.15;41.90;100520.50;4990031;28;20388;-81
2021/01/26 07:36:37;;;;;;;;;;;;;;;6.62;51.01;100522.25;4976632;28;20296;-81
2021/01/26 07:39:22;;;;;;;;;;;;;;;6.85;56.26;100526.78;4986707;28;20339;-81
2021/01/26 07:42:14;;;;;;;;;;;;;;;7.05;59.78;100536.44;4974626;28;19913;-82
2021/01/26 07:45:02;;;;;;;;;;;;;;;7.18;61.20;100535.66;4967325;28;19915;-82
2021/01/26 07:47:52;;;;;;;;;;;;;;;7.28;62.38;100543.59;4985348;28;19921;-82
2021/01/26 07:50:44;;;;;;;;;;;;;;;7.15;55.51;100545.19;4999818;28;19914;-79
2021/01/26 07:53:28;;;;;;;;;;;;;;;7.25;59.89;100553.13;4984854;28;19918;-80
2021/01/26 07:56:13;;;;;;;;;;;;;;;7.34;61.19;100553.25;4984279;28;19914;-80
2021/01/26 07:58:59;;;;;;;;;;;;;;;7.39;61.92;100563.16;5000866;28;19921;-80
2021/01/26 08:01:47;;;;;;;;;;;;;;;7.42;61.57;100567.97;5001184;28;19913;-80
2021/01/26 08:04:37;;;;;;;;;;;;;;;7.43;61.05;100567.69;4978361;28;20376;-79
2021/01/26 08:07:22;;;;;;;;;;;;;;;7.52;60.12;100575.91;4977153;28;19918;-80
2021/01/26 08:10:15;;;;;;;;;;;;;;;7.48;56.61;100578.41;4988053;28;19913;-80
2021/01/26 08:13:01;;;;;;;;;;;;;;;7.36;54.32;100588.91;4999161;28;19914;-80
2021/01/26 08:15:46;;;;;;;;;;;;;;;7.14;50.14;100588.75;4975914;28;19914;-80
2021/01/26 08:18:32;;;;;;;;;;;;;;;6.82;44.49;100590.31;4985666;28;19917;-81
2021/01/26 08:21:39;;;;;;;;;;;;;;;6.50;41.75;100598.34;4975165;28;19917;-80
2021/01/26 08:24:32;;;;;;;;;;;;;;;6.23;40.42;100600.84;4999441;28;20384;-80
2021/01/26 08:27:30;;;;;;;;;;;;;;;6.36;42.20;100613.63;4986886;28;19914;-80
2021/01/26 08:30:21;;;;;;;;;;;;;;;6.78;49.19;100605.50;5000615;28;19914;-80
2021/01/26 08:33:07;;;;;;;;;;;;;;;6.62;45.88;100614.91;4984293;28;19913;-81
2021/01/26 08:36:11;;;;;;;;;;;;;;;6.45;43.00;100617.28;4976462;28;19918;-79
2021/01/26 08:38:56;;;;;;;;;;;;;;;6.84;47.43;100617.06;4984939;28;19918;-80
2021/01/26 08:41:40;;;;;;;;;;;;;;;6.99;48.25;100626.81;5000028;28;19913;-80
2021/01/26 08:44:28;;;;;;;;;;;;;;;7.06;48.13;100627.28;5003045;28;20300;-80
2021/01/26 08:47:39;;;;;;;;;;;;;;;7.05;46.55;100631.06;4978532;28;19914;-80
2021/01/26 08:50:53;;;;;;;;;;;;;;;7.11;45.97;100635.31;4990607;28;19917;-80
2021/01/26 08:53:39;;;;;;;;;;;;;;;7.24;46.97;100648.06;4984906;28;19917;-80
2021/01/26 08:56:24;;;;;;;;;;;;;;;7.32;48.66;100652.81;4976071;28;19926;-80
2021/01/26 08:59:12;;;;;;;;;;;;;;;7.25;47.46;100655.09;5003592;28;19918;-79
2021/01/26 09:01:57;;;;;;;;;;;;;;;7.43;48.41;100658.84;4987889;28;19913;-80
2021/01/26 09:04:43;;;;;;;;;;;;;;;7.44;48.04;100666.69;4977108;28;19914;-79
2021/01/26 09:07:46;;;;;;;;;;;;;;;7.65;48.93;100678.78;4980406;28;19939;-80
2021/01/26 09:10:30;;;;;;;;;;;;;;;7.67;46.48;100678.47;5003992;28;20388;-80
2021/01/26 09:13:27;;;;;;;;;;;;;;;7.96;48.38;100683.66;4989962;28;20343;-80
2021/01/26 09:16:25;;;;;;;;;;;;;;;7.95;47.12;100692.88;5004142;28;19913;-80
2021/01/26 09:19:24;;;;;;;;;;;;;;;8.09;48.16;100704.53;5004110;28;19918;-80
2021/01/26 09:22:18;;;;;;;;;;;;;;;8.14;48.31;100704.44;5005280;28;19914;-81
2021/01/26 09:25:05;;;;;;;;;;;;;;;8.17;47.61;100706.56;4993113;28;19913;-82
2021/01/26 09:27:58;;;;;;;;;;;;;;;8.39;49.99;100712.13;4976935;28;19918;-80
2021/01/26 09:30:45;;;;;;;;;;;;;;;8.54;50.87;100708.31;4989874;28;19914;-80
2021/01/26 09:33:31;;;;;;;;;;;;;;;8.59;50.32;100702.78;5003361;28;20295;-79
2021/01/26 09:36:19;;;;;;;;;;;;;;;8.44;48.49;100703.88;5004430;28;19913;-79
2021/01/26 09:39:08;;;;;;;;;;;;;;;8.66;52.79;100703.19;4993278;28;19921;-80
2021/01/26 09:41:53;;;;;;;;;;;;;;;8.46;48.61;100692.75;4990411;28;19913;-78
2021/01/26 09:44:37;;;;;;;;;;;;;;;8.36;46.53;100693.75;5005192;28;19918;-80
2021/01/26 09:47:22;;;;;;;;;;;;;;;8.49;48.21;100695.66;4979434;28;19917;-80
2021/01/26 09:50:12;;;;;;;;;;;;;;;8.47;47.58;100692.47;4991041;28;20291;-81
2021/01/26 09:52:59;;;;;;;;;;;;;;;8.51;48.04;100696.19;5007759;28;20296;-81
2021/01/26 09:55:43;;;;;;;;;;;;;;;8.57;48.42;100694.16;5007612;28;19914;-81
2021/01/26 09:58:28;;;;;;;;;;;;;;;8.56;46.99;100692.56;4992243;28;19917;-80
2021/01/26 10:01:14;;;;;;;;;;;;;;;8.59;47.85;100695.44;5004889;28;20318;-81
2021/01/26 10:04:01;;;;;;;;;;;;;;;8.57;46.26;100694.16;5008597;28;19913;-80
2021/01/26 10:06:47;;;;;;;;;;;;;;;8.57;46.10;100703.09;5004489;28;19914;-80
2021/01/26 10:09:34;;;;;;;;;;;;;;;8.67;46.07;100699.38;5027528;22;19915;-76
2021/01/26 10:12:22;;;;;;;;;;;;;;;8.72;46.15;100701.19;4970296;28;20284;-77
2021/01/26 10:15:11;;;;;;;;;;;;;;;8.78;45.22;100695.34;4995876;28;19914;-76
2021/01/26 10:18:07;;;;;;;;;;;;;;;8.83;46.54;100703.38;4981096;28;19913;-77
2021/01/26 10:20:58;;;;;;;;;;;;;;;8.93;46.04;100699.66;4963118;28;19918;-77
2021/01/26 10:23:43;;;;;;;;;;;;;;;8.97;46.50;100706.06;4976612;28;19918;-77
2021/01/26 10:26:31;;;;;;;;;;;;;;;9.10;45.51;100707.13;4967472;28;19914;-77
2021/01/26 10:29:20;;;;;;;;;;;;;;;9.18;45.39;100698.28;4975898;28;19918;-77
2021/01/26 10:32:06;;;;;;;;;;;;;;;9.19;46.17;100700.69;4992330;28;19917;-78
2021/01/26 10:34:50;;;;;;;;;;;;;;;9.27;47.63;100702.66;4995460;28;20368;-78
2021/01/26 10:37:35;;;;;;;;;;;;;;;9.42;47.20;100704.22;4981230;28;19917;-78
2021/01/26 10:40:30;;;;;;;;;;;;;;;9.49;45.85;100703.78;4980088;28;19917;-77
2021/01/26 10:43:16;;;;;;;;;;;;;;;9.51;44.42;100705.06;4985276;28;20296;-76
2021/01/26 10:46:01;;;;;;;;;;;;;;;9.57;44.92;100697.63;4984939;28;19914;-78
2021/01/26 10:48:47;;;;;;;;;;;;;;;9.61;44.27;100702.13;4986484;28;19913;-79
2021/01/26 10:51:35;;;;;;;;;;;;;;;9.64;43.99;100700.72;4983892;28;19921;-79
2021/01/26 10:54:20;;;;;;;;;;;;;;;9.70;44.30;100699.47;4987794;28;19913;-79
2021/01/26 10:57:05;;;;;;;;;;;;;;;9.92;49.11;100704.06;4985733;28;19918;-79
2021/01/26 10:59:49;;;;;;;;;;;;;;;10.20;49.64;100708.25;4997931;28;19918;-79
2021/01/26 11:02:34;;;;;;;;;;;;;;;9.94;45.16;100697.22;4997322;28;20300;-78
2021/01/26 11:05:19;;;;;;;;;;;;;;;9.95;44.29;100700.75;4983532;28;19913;-79
2021/01/26 11:08:04;;;;;;;;;;;;;;;9.98;44.98;100698.19;4981629;28;19914;-79
2021/01/26 11:10:48;;;;;;;;;;;;;;;10.05;44.46;100700.47;4996892;28;19914;-77
2021/01/26 11:13:32;;;;;;;;;;;;;;;10.05;44.07;100695.84;4996602;28;19914;-79
2021/01/26 11:16:17;;;;;;;;;;;;;;;10.11;45.11;100700.00;4983143;28;20303;-78
2021/01/26 11:19:04;;;;;;;;;;;;;;;10.04;44.27;100691.53;4986558;28;19917;-78
2021/01/26 11:21:49;;;;;;;;;;;;;;;10.12;45.64;100690.75;4995771;28;20287;-77
2021/01/26 11:24:33;;;;;;;;;;;;;;;10.20;45.13;100698.19;4982047;28;19917;-76
2021/01/26 11:27:17;;;;;;;;;;;;;;;10.22;44.79;100685.06;4980023;28;19914;-79
2021/01/26 11:30:06;;;;;;;;;;;;;;;10.24;44.21;100688.31;4978924;28;19914;-78
2021/01/26 11:32:51;;;;;;;;;;;;;;;10.36;44.36;100686.91;4992368;28;20066;-78
2021/01/26 11:35:35;;;;;;;;;;;;;;;10.37;44.46;100681.13;4991212;28;19917;-78
2021/01/26 11:38:20;;;;;;;;;;;;;;;10.45;44.54;100682.31;4982240;28;20491;-78
2021/01/26 11:41:05;;;;;;;;;;;;;;;10.42;44.15;100674.75;4964937;28;19918;-76
2021/01/26 11:43:50;;;;;;;;;;;;;;;10.43;43.78;100679.09;4977543;28;19914;-77
2021/01/26 11:46:35;;;;;;;;;;;;;;;10.49;43.02;100675.91;4975898;28;19937;-78
2021/01/26 11:49:19;;;;;;;;;;;;;;;10.52;44.50;100672.56;4979400;28;19936;-76
2021/01/26 11:52:04;;;;;;;;;;;;;;;10.61;44.38;100675.31;4997438;28;19913;-79
2021/01/26 11:54:49;;;;;;;;;;;;;;;10.60;43.67;100673.72;4995892;28;19914;-78
2021/01/26 11:57:33;;;;;;;;;;;;;;;10.76;44.56;100666.72;5002800;28;19914;-77
2021/01/26 12:00:19;;;;;;;;;;;;;;;10.79;43.92;100670.69;4980034;28;19918;-80
2021/01/26 12:03:05;;;;;;;;;;;;;;;10.87;44.03;100667.22;4991854;28;19913;-78
2021/01/26 12:05:49;;;;;;;;;;;;;;;10.84;43.63;100663.19;4949199;28;19914;-77
2021/01/26 12:08:34;;;;;;;;;;;;;;;10.93;43.74;100655.03;4983079;28;19913;-77
2021/01/26 12:11:19;;;;;;;;;;;;;;;10.95;42.63;100664.50;4980086;28;20380;-77
2021/01/26 12:14:04;;;;;;;;;;;;;;;11.05;43.92;100664.19;4993267;28;19913;-79
2021/01/26 12:16:49;;;;;;;;;;;;;;;10.97;42.48;100667.69;4983564;28;19913;-77
2021/01/26 12:19:34;;;;;;;;;;;;;;;11.04;42.38;100662.56;4980288;28;20312;-78
2021/01/26 12:22:19;;;;;;;;;;;;;;;11.06;42.44;100664.97;4980360;28;20315;-77
2021/01/26 12:25:04;;;;;;;;;;;;;;;11.12;42.23;100669.16;4984233;28;19921;-78
2021/01/26 12:27:49;;;;;;;;;;;;;;;11.01;40.63;100663.22;4983530;28;19914;-77
2021/01/26 12:30:33;;;;;;;;;;;;;;;11.27;42.75;100668.66;4992930;28;19914;-79
2021/01/26 12:33:18;;;;;;;;;;;;;;;11.35;42.58;100667.06;4976490;28;20380;-79
2021/01/26 12:36:03;;;;;;;;;;;;;;;11.32;41.68;100673.97;4974010;28;19914;-79
2021/01/26 12:38:48;;;;;;;;;;;;;;;11.32;42.07;100675.88;4960749;28;19914;-80
2021/01/26 12:41:32;;;;;;;;;;;;;;;11.28;40.46;100675.69;4959540;28;20308;-78
2021/01/26 12:44:18;;;;;;;;;;;;;;;11.32;40.62;100662.25;4973796;28;19914;-77
2021/01/26 12:47:03;;;;;;;;;;;;;;;11.31;40.77;100668.81;4962069;28;19914;-77
2021/01/26 12:49:48;;;;;;;;;;;;;;;11.27;41.08;100659.69;4959502;28;19914;-78
2021/01/26 12:52:32;;;;;;;;;;;;;;;11.37;41.64;100662.09;4963214;28;20320;-80
2021/01/26 12:55:17;;;;;;;;;;;;;;;11.40;41.42;100666.88;4961908;28;19913;-80
2021/01/26 12:58:02;;;;;;;;;;;;;;;11.49;41.98;100667.69;4972583;28;19914;-80
2021/01/26 13:00:47;;;;;;;;;;;;;;;11.57;41.84;100666.88;4959718;28;19918;-79
2021/01/26 13:03:31;;;;;;;;;;;;;;;11.81;43.86;100661.72;4973931;28;19914;-79
2021/01/26 13:06:16;;;;;;;;;;;;;;;11.77;41.04;100665.44;4960596;28;19918;-80
2021/01/26 13:09:01;;;;;;;;;;;;;;;11.94;43.47;100663.44;4959758;28;19913;-80
2021/01/26 13:11:45;;;;;;;;;;;;;;;11.88;39.56;100674.88;4967472;28;19917;-79
2021/01/26 13:14:30;;;;;;;;;;;;;;;11.88;41.59;100670.22;4992725;28;19914;-78
2021/01/26 13:17:15;;;;;;;;;;;;;;;11.95;40.84;100670.50;4963762;28;19914;-80
2021/01/26 13:19:59;;;;;;;;;;;;;;;12.02;41.28;100670.00;4975928;28;19917;-79
2021/01/26 13:22:44;;;;;;;;;;;;;;;12.12;40.45;100672.38;4958457;28;19914;-77
2021/01/26 13:25:30;;;;;;;;;;;;;;;12.17;41.60;100676.84;4963837;28;20372;-79
2021/01/26 13:28:14;;;;;;;;;;;;;;;12.15;38.69;100674.44;4974793;28;19914;-80
2021/01/26 13:30:59;;;;;;;;;;;;;;;12.30;40.74;100684.81;4963668;28;19914;-78
2021/01/26 13:33:43;;;;;;;;;;;;;;;12.26;40.53;100680.34;4961720;28;19922;-80
2021/01/26 13:36:28;;;;;;;;;;;;;;;12.44;40.02;100682.66;4979370;28;19914;-79
2021/01/26 13:39:14;;;;;;;;;;;;;;;12.57;40.24;100688.22;4950372;28;19914;-80
2021/01/26 13:41:59;;;;;;;;;;;;;;;12.50;37.90;100685.19;4976518;28;19921;-79
2021/01/26 13:44:47;;;;;;;;;;;;;;;12.58;40.74;100700.72;4975265;28;19914;-80
2021/01/26 13:47:32;;;;;;;;;;;;;;;12.69;39.11;100694.56;4963565;28;19914;-79
2021/01/26 13:50:18;;;;;;;;;;;;;;;12.71;41.58;100703.22;4974801;28;19914;-79
2021/01/26 13:53:03;;;;;;;;;;;;;;;12.75;39.74;100706.88;4979944;28;19914;-80
2021/01/26 13:55:47;;;;;;;;;;;;;;;12.84;38.96;100707.66;4982314;28;19914;-80
2021/01/26 13:58:32;;;;;;;;;;;;;;;13.07;38.25;100715.50;4980778;28;19914;-80
2021/01/26 14:01:16;;;;;;;;;;;;;;;13.18;38.41;100714.03;4953000;28;20308;-82
2021/01/26 14:04:01;;;;;;;;;;;;;;;13.21;37.81;100716.09;4979310;28;19914;-80
2021/01/26 14:06:45;;;;;;;;;;;;;;;13.28;38.27;100711.69;4966321;28;19918;-81
2021/01/26 14:09:30;;;;;;;;;;;;;;;13.42;37.10;100710.63;4969394;28;19914;-78
2021/01/26 14:12:15;;;;;;;;;;;;;;;13.48;37.70;100710.09;4980816;28;20288;-79
2021/01/26 14:15:00;;;;;;;;;;;;;;;13.59;37.58;100715.94;4979782;28;19914;-80
2021/01/26 14:17:45;;;;;;;;;;;;;;;13.63;37.99;100711.41;4983631;28;19914;-80
2021/01/26 14:20:30;;;;;;;;;;;;;;;13.56;36.66;100720.13;4978981;28;19922;-80
2021/01/26 14:23:15;;;;;;;;;;;;;;;13.64;35.84;100716.53;4964879;28;19914;-79
2021/01/26 14:25:59;;;;;;;;;;;;;;;13.72;37.33;100725.78;4982623;28;19914;-81
2021/01/26 14:28:44;;;;;;;;;;;;;;;13.75;37.00;100721.59;4967294;28;19914;-80
2021/01/26 14:31:32;;;;;;;;;;;;;;;13.87;35.89;100711.47;4964103;28;19914;-80